Terminal Aerodrome Forecast
Issued by NWS Northern Indiana

Home | Current Version | Previous Version | Graphics & Text | Print | Product List | Glossary On
Versions: 1 2 3 4 5 6 7 8 9 10 11 12 13
000
FTUS43 KIWX 041722
TAFFWA
TAF
KFWA 041722Z 0418/0518 VRB04KT P6SM SCT040
     FM050100 00000KT P6SM SKC
     FM051500 16004KT P6SM SCT040=

USA.gov is the U.S. government's official web portal to all federal, state and local government web resources and services.